Tiempo atmosférico en la estación meteorológica de Sant Pau De Seguries, Girona (863 m.)



Fecha
DESCASC
Temp. máxima en grados centígrados (hora)
DESCASC
Temp. mínima en grados centígrados (hora)
DESCASC
Temp. media en grados centígrados
DESCASC
Racha de viento máxima en m/sg (hora)
DESCASC
Velocidad máxima media en intervalos de 10 minutos(hora)
DESCASC
Precipitaciones diarias en mm
DESCASC
Precipitaciones de 00:00 a 06:00 en mm
DESCASC
Precipitaciones de 06:00 a 12:00 en mm
DESCASC
Precipitaciones de 12:00 a 18:00 en mm
DESCASC
Precipitaciones de 18:00 a 24:00 en mm
DESCASC
20-10-2019 -- (--) -- (--) -- -- (--) -- (--) -- 0 17.6 -- --
19-10-2019 21 (13:10) 7.3 (08:30) 14.2 12.22 (15:20) 4.72 (15:20) 0 0 0 0 0
18-10-2019 20.9 (15:00) 3.8 (06:10) 12.3 5.56 (14:40) 2.78 (12:50) 0 0 0 0 0
17-10-2019 21.6 (15:50) 4.3 (00:00) 13 9.72 (14:30) 4.72 (16:00) 0 0 0 0 0
16-10-2019 18 (16:00) 5.2 (00:00) 11.6 11.11 (13:30) 4.72 (14:40) 0 0 0 0 0
15-10-2019 16.3 (13:50) 8.5 (00:00) 12.4 6.67 (11:30) 3.61 (11:30) 0.8 0.6 0.2 0 0
14-10-2019 20.4 (14:40) 12.3 (00:00) 16.3 8.06 (18:00) 3.33 (23:59) 4.2 0 0 2.6 1.6
13-10-2019 23 (15:00) 10.2 (00:00) 16.6 6.39 (17:10) 3.33 (16:40) 0 0 0 0 0
12-10-2019 23.3 (16:00) 14.1 (00:00) 18.7 10 (05:40) 5 (04:40) 0 0 0 0 0
11-10-2019 23 (16:10) 5.8 (00:00) 14.4 8.06 (11:20) 3.89 (08:30) 0 0 0 0 0
10-10-2019 18.2 (14:40) 9.2 (00:00) 13.7 5.83 (03:20) 2.5 (11:30) 1.8 1.8 0 0 0
09-10-2019 18.9 (12:50) 8.2 (00:00) 13.5 5.28 (13:20) 3.06 (13:00) 0.4 0 0 0 0.4
08-10-2019 24.1 (16:00) 5.8 (00:00) 15 7.5 (11:30) 3.89 (11:50) 0 0 0 0 0
07-10-2019 20 (16:30) 5.9 (00:00) 13 4.17 (13:10) 2.5 (15:40) 0 0 0 0 0
06-10-2019 18.4 (15:30) 7.7 (00:00) 13 7.5 (13:20) 3.33 (13:00) 0 0 0 0 0
05-10-2019 20.2 (14:30) 11.3 (00:00) 15.8 6.11 (12:00) 3.33 (12:00) 0 0 0 0 0
04-10-2019 21.3 (15:40) 4.1 (00:00) 12.7 5.28 (18:50) 2.78 (18:50) 0 0 0 0 0
03-10-2019 19.9 (16:00) 6.6 (00:00) 13.2 5 (10:50) 2.22 (10:00) 0 0 0 0 0
02-10-2019 19.4 (14:50) 8.5 (00:00) 13.9 5.56 (02:00) 2.22 (10:40) 10.8 10.8 0 0 0
01-10-2019 25.5 (14:10) 9.7 (00:00) 17.6 6.39 (15:30) 3.06 (16:30) 1 0 0 0 1
30-09-2019 26 (16:00) 8.4 (00:00) 17.2 6.11 (11:50) 2.78 (12:00) 0 0 0 0 0
29-09-2019 27.1 (16:40) 8.5 (00:00) 17.8 7.5 (01:50) 4.17 (03:30) 0 0 0 0 0
28-09-2019 22.1 (15:50) 11.8 (00:00) 17 6.94 (13:50) 3.33 (15:30) 0 0 0 0 0
27-09-2019 23.1 (14:50) 9 (00:00) 16.1 6.11 (15:00) 2.78 (16:20) 0 0 0 0 0
26-09-2019 24.1 (16:20) 9.6 (00:00) 16.9 4.72 (14:50) 2.22 (16:30) 0 0 0 0 0
25-09-2019 17.9 (13:30) 10.1 (00:00) 14 5 (12:30) 2.22 (12:50) 0 0 0 0 0
24-09-2019 25.7 (15:30) 8.9 (00:00) 17.3 8.06 (09:40) 4.17 (09:50) 0 0 0 0 0
23-09-2019 21.2 (16:00) 11 (00:00) 16.1 5 (13:10) 2.5 (16:20) 0 0 0 0 0
22-09-2019 23.9 (15:10) 12.1 (00:00) 18 7.22 (13:50) 3.33 (12:50) 0.8 0 0 0 0.8

Gráficas

Temp. máximas Temp. mínimas Temp. medias Precipitaciones Rachas de viento máximas Velocidades máximas media en intervalos de 10 minutos

Datos horarios

Fecha y hora oficial Temperatura (ºC) Velocidad del viento (km/h) Dirección del viento Racha (km/h) Dirección de racha Precipitación (mm) Presión (hPa) Tendencia (hPa) Humedad (%)
2019-10-21 23:00:00 9 4 Norte 10 Nordeste 0 -- -- 100
2019-10-21 22:00:00 9.6 0 Calma 3 Sur 0 -- -- 100
2019-10-21 21:00:00 9.8 3 Sudeste 9 Nordeste 0 -- -- 100
2019-10-21 20:00:00 9.7 0 Calma 7 Sur 0 -- -- 99
2019-10-21 19:00:00 10.3 2 Nordeste 6 Sudeste 0 -- -- 97
2019-10-21 18:00:00 10.6 3 Norte 12 Sudeste 0 -- -- 95
2019-10-21 17:00:00 11 4 Este 9 Nordeste 0 -- -- 91
2019-10-21 16:00:00 10.9 2 Este 10 Sudeste 0 -- -- 92
2019-10-21 15:00:00 11.6 3 Sudeste 10 Nordeste 0 -- -- 89
2019-10-21 14:00:00 11.3 7 Este 13 Este 0 -- -- 90
2019-10-21 13:00:00 11.5 5 Este 15 Sudeste 0 -- -- 89
2019-10-21 12:00:00 11 0 Calma 6 Nordeste 0 -- -- 87
2019-10-21 11:00:00 9 3 Norte 11 Norte 0 -- -- 88
2019-10-21 10:00:00 7.4 3 Nordeste 14 Nordeste 0 -- -- 90
2019-10-21 09:00:00 6.5 5 Nordeste 12 Nordeste 0 -- -- 93
2019-10-21 08:00:00 5.8 3 Nordeste 10 Nordeste 0 -- -- 98
2019-10-21 07:00:00 6.3 3 Nordeste 9 Norte 0 -- -- 98
2019-10-21 06:00:00 6.5 4 Norte 8 Norte 0 -- -- 100
2019-10-21 05:00:00 6.4 3 Norte 8 Norte 0 -- -- 100
2019-10-21 04:00:00 7.3 0 Calma 9 Norte 0 -- -- 100
2019-10-21 03:00:00 8.3 0 Calma 9 Sudoeste 0 -- -- 100
2019-10-21 02:00:00 8.7 0 Calma 4 Oeste 0 -- -- 100
2019-10-21 01:00:00 9.1 0 Calma 4 Norte 0 -- -- 100
2019-10-21 00:00:00 9.3 0 Calma 7 Oeste 0 -- -- 100
2019-10-20 23:00:00 9.5 4 Sudoeste 10 Sudoeste 0 -- -- 100
2019-10-20 22:00:00 9.9 3 Sudoeste 8 Oeste 0 -- -- 100
2019-10-20 21:00:00 10.3 3 Sudoeste 15 Oeste 0.4 -- -- 100
2019-10-20 20:00:00 10.1 7 Sudoeste 17 Sudoeste 1 -- -- 99
2019-10-20 19:00:00 10.8 5 Sudoeste 18 Sudoeste 1.4 -- -- 94
2019-10-20 18:00:00 11.4 9 Sudoeste 26 Sudoeste 1.6 -- -- 91
2019-10-20 17:00:00 11.3 10 Sudoeste 28 Sudoeste 1.8 -- -- 93
2019-10-20 16:00:00 11.8 13 Sudoeste 36 Sudoeste 1.8 -- -- 92
2019-10-20 15:00:00 15 9 Sudoeste 26 Oeste 2 -- -- 84
2019-10-20 14:00:00 15.5 10 Sudoeste 22 Sudoeste 3.8 -- -- 83
2019-10-20 13:00:00 12.9 8 Oeste 42 Sudoeste 5.6 -- -- 97
2019-10-20 12:00:00 15.4 6 Sudoeste 23 Sudoeste 0.2 -- -- 97
2019-10-20 11:00:00 14.2 5 Sudoeste 17 Oeste 0.6 -- -- 100
2019-10-20 10:00:00 13.3 4 Sudoeste 22 Sudoeste 2.8 -- -- 100
2019-10-20 09:00:00 13.2 9 Sudoeste 30 Sur 13.4 -- -- 97
2019-10-20 08:00:00 14.2 4 Sudeste 10 Sudeste 0.6 -- -- 94
2019-10-20 07:00:00 14.3 2 Sur 13 Sudoeste 0 -- -- 92
2019-10-20 06:00:00 14.5 5 Sur 13 Sur 0 -- -- 91
2019-10-20 05:00:00 14.2 3 Sudoeste 13 Sudoeste 0 -- -- 92
2019-10-20 04:00:00 14.5 6 Sudoeste 15 Oeste 0 -- -- 90
2019-10-20 03:00:00 14.5 6 Sudoeste 16 Sudoeste 0 -- -- 90
2019-10-20 02:00:00 14.6 6 Sudoeste 19 Sudoeste 0 -- -- 88
2019-10-20 01:00:00 14.6 6 Sudoeste 16 Oeste 0 -- -- 88
2019-10-20 00:00:00 14.5 3 Sudoeste 12 Sur 0 -- -- 86
2019-10-19 23:00:00 14.4 5 Sudoeste 19 Sudoeste 0 -- -- 85
2019-10-19 22:00:00 14.9 6 Sudoeste 20 Sudoeste 0 -- -- 84
2019-10-19 21:00:00 15.6 5 Sudoeste 17 Sur 0 -- -- 84
2019-10-19 20:00:00 16.1 5 Sudoeste 18 Sudoeste 0 -- -- 82
2019-10-19 19:00:00 17.6 6 Sudoeste 21 Sur 0 -- -- 75
2019-10-19 18:00:00 18.4 8 Sudoeste 19 Sudoeste 0 -- -- 67
2019-10-19 17:00:00 19.5 10 Sudoeste 31 Oeste 0 -- -- 60
2019-10-19 16:00:00 20.2 11 Sudoeste 44 Oeste 0 -- -- 55
2019-10-19 15:00:00 20.8 13 Sudoeste 37 Oeste 0 -- -- 52
2019-10-19 14:00:00 20.8 12 Sudoeste 33 Oeste 0 -- -- 52
2019-10-19 13:00:00 20.8 9 Sudoeste 31 Sur 0 -- -- 56
2019-10-19 12:00:00 19 9 Sudoeste 26 Sur 0 -- -- 60
2019-10-19 11:00:00 16.2 5 Sur 14 Sur 0 -- -- 77
2019-10-19 10:00:00 10.9 2 Sur 7 Sudoeste 0 -- -- 100
2019-10-19 09:00:00 7.7 2 Sur 6 Sudoeste 0 -- -- 100
2019-10-19 08:00:00 7.7 2 Sudoeste 8 Sudoeste 0 -- -- 100
2019-10-19 07:00:00 7.9 2 Sudoeste 6 Sur 0 -- -- 100
2019-10-19 06:00:00 8.7 0 Calma 0 Calma 0 -- -- 100
2019-10-19 05:00:00 9 0 Calma 0 Calma 0 -- -- 100
2019-10-19 04:00:00 9 0 Calma 5 Sudoeste 0 -- -- 98
2019-10-19 03:00:00 10.1 2 Sur 6 Sudoeste 0 -- -- 96
2019-10-19 02:00:00 11.1 4 Sudoeste 17 Oeste 0 -- -- 94
2019-10-19 01:00:00 11.4 12 Sudoeste 23 Sudoeste 0 -- -- 97
2019-10-19 00:00:00 10.5 3 Sur 8 Sudoeste 0 -- -- 100
2019-10-18 23:00:00 10.4 0 Calma 4 Sudoeste 0 -- -- 97
2019-10-18 22:00:00 11 0 Calma 2 Sur 0 -- -- 95
2019-10-18 21:00:00 11.5 0 Calma 4 Sudeste 0 -- -- 93
2019-10-18 20:00:00 12.6 0 Calma 7 Nordeste 0 -- -- 85
2019-10-18 19:00:00 15.5 4 Nordeste 13 Sur 0 -- -- 76
2019-10-18 18:00:00 17.4 4 Sur 14 Sudoeste 0 -- -- 69
2019-10-18 17:00:00 18.9 6 Sur 16 Sudeste 0 -- -- 61
2019-10-18 16:00:00 19.9 6 Sudeste 18 Sudoeste 0 -- -- 58
2019-10-18 15:00:00 20.9 9 Sudoeste 20 Oeste 0 -- -- 55
2019-10-18 14:00:00 20 9 Sudoeste 18 Sudoeste 0 -- -- 58
2019-10-18 13:00:00 17.2 6 Sudoeste 19 Sudoeste 0 -- -- 66
2019-10-18 12:00:00 12.4 8 Sudoeste 19 Sudoeste 0 -- -- 80
2019-10-18 11:00:00 9.7 9 Sudoeste 19 Sudoeste 0 -- -- 90
2019-10-18 10:00:00 7 7 Sudoeste 16 Oeste 0 -- -- 100
2019-10-18 09:00:00 5.8 7 Sudoeste 13 Sudoeste 0 -- -- 100
2019-10-18 08:00:00 5.1 0 Calma 8 Sur 0 -- -- 100
2019-10-18 07:00:00 4.2 2 Sudoeste 6 Oeste 0 -- -- 100
2019-10-18 06:00:00 3.9 0 Calma 9 Sudoeste 0 -- -- 100
2019-10-18 05:00:00 4.3 0 Calma 9 Oeste 0 -- -- 100
2019-10-18 04:00:00 4.5 5 Sudoeste 9 Sudoeste 0 -- -- 100
2019-10-18 03:00:00 5 2 Sudoeste 6 Sudoeste 0 -- -- 99
2019-10-18 02:00:00 5.3 4 Sur 7 Sudoeste 0 -- -- 97
2019-10-18 01:00:00 6.2 0 Calma 3 Sur 0 -- -- 94
2019-10-18 00:00:00 7.4 0 Calma 4 Nordeste 0 -- -- 92
2019-10-17 23:00:00 8.9 0 Calma 5 Nordeste 0 -- -- 89
2019-10-17 22:00:00 10.1 0 Calma 5 Sur 0 -- -- 82
2019-10-17 21:00:00 12.7 0 Calma 7 Sudoeste 0 -- -- 73
2019-10-17 20:00:00 15.2 3 Sudoeste 19 Sudoeste 0 -- -- 61
2019-10-17 19:00:00 16.8 9 Sudoeste 28 Sudoeste 0 -- -- 54
2019-10-17 18:00:00 18.3 10 Sudoeste 34 Sudoeste 0 -- -- 47
2019-10-17 17:00:00 20.4 10 Sudoeste 30 Sudoeste 0 -- -- 42
2019-10-17 16:00:00 21.5 17 Sudoeste 35 Sudoeste 0 -- -- 39
2019-10-17 15:00:00 21.3 12 Sudoeste 35 Oeste 0 -- -- 41
2019-10-17 14:00:00 20.1 12 Sudoeste 32 Sudoeste 0 -- -- 41
2019-10-17 13:00:00 18.3 11 Sudoeste 29 Sudoeste 0 -- -- 49
2019-10-17 12:00:00 16.3 10 Sudoeste 28 Sudoeste 0 -- -- 58
2019-10-17 11:00:00 12.5 9 Sudoeste 22 Sudoeste 0 -- -- 74
2019-10-17 10:00:00 8.7 10 Sudoeste 23 Sudoeste 0 -- -- 96
2019-10-17 09:00:00 5.6 9 Sudoeste 22 Oeste 0 -- -- 100
2019-10-17 08:00:00 4.7 7 Sudoeste 21 Oeste 0 -- -- 100
2019-10-17 07:00:00 4.6 7 Sudoeste 19 Sudoeste 0 -- -- 100
2019-10-17 06:00:00 4.6 4 Sudoeste 15 Sudoeste 0 -- -- 100
2019-10-17 05:00:00 4.6 7 Sudoeste 14 Sudoeste 0 -- -- 100
2019-10-17 04:00:00 4.6 3 Sudoeste 7 Sur 0 -- -- 100
2019-10-17 03:00:00 4.5 2 Sur 5 Sur 0 -- -- 100
2019-10-17 02:00:00 5 0 Calma 5 Sudoeste 0 -- -- 100
2019-10-17 01:00:00 5.3 0 Calma 4 Oeste 0 -- -- 98
2019-10-17 00:00:00 6.1 2 Sur 6 Este 0 -- -- 95
2019-10-16 23:00:00 6.9 0 Calma 4 Este 0 -- -- 96
2019-10-16 22:00:00 7.2 2 Norte 4 Sudoeste 0 -- -- 93
2019-10-16 21:00:00 8.7 0 Calma 3 Sur 0 -- -- 87
2019-10-16 20:00:00 10.9 0 Calma 8 Sur 0 -- -- 77
2019-10-16 19:00:00 14.5 4 Sudoeste 22 Sudoeste 0 -- -- 63
2019-10-16 18:00:00 16.5 9 Sudoeste 31 Sudoeste 0 -- -- 54
2019-10-16 17:00:00 17.6 9 Sudoeste 33 Oeste 0 -- -- 51
2019-10-16 16:00:00 18 13 Oeste 30 Oeste 0 -- -- 49
2019-10-16 15:00:00 17.2 14 Sudoeste 37 Sudoeste 0 -- -- 50
2019-10-16 14:00:00 16.7 15 Sudoeste 40 Oeste 0 -- -- 54
2019-10-16 13:00:00 14.8 16 Sudoeste 39 Sudoeste 0 -- -- 63
2019-10-16 12:00:00 12.9 15 Sudoeste 35 Oeste 0 -- -- 68
2019-10-16 11:00:00 10.7 14 Sudoeste 32 Oeste 0 -- -- 79
2019-10-16 10:00:00 8 8 Sudoeste 23 Sudoeste 0 -- -- 100
2019-10-16 09:00:00 5.5 9 Sudoeste 22 Sudoeste 0 -- -- 100
2019-10-16 08:00:00 5.6 6 Oeste 14 Oeste 0 -- -- 100
2019-10-16 07:00:00 5.6 4 Sudoeste 10 Sudoeste 0 -- -- 100
2019-10-16 06:00:00 5.6 0 Calma 11 Oeste 0 -- -- 100
2019-10-16 05:00:00 6.1 3 Sudoeste 11 Sudoeste 0 -- -- 100
2019-10-16 04:00:00 6.7 4 Sudoeste 10 Sudoeste 0 -- -- 100
2019-10-16 03:00:00 7.1 4 Sudoeste 15 Oeste 0 -- -- 100
2019-10-16 02:00:00 7.7 4 Sudoeste 9 Sudoeste 0 -- -- 99
2019-10-16 01:00:00 8.5 4 Sudoeste 12 Oeste 0 -- -- 96
2019-10-16 00:00:00 10.2 2 Sudoeste 4 Sudoeste 0 -- -- 94
2019-10-15 23:00:00 10.6 2 Nordeste 6 Sudeste 0 -- -- 91
2019-10-15 22:00:00 10.3 3 Sudeste 8 Sudeste 0 -- -- 94
2019-10-15 21:00:00 9.9 0 Calma 6 Sudeste 0 -- -- 94
2019-10-15 20:00:00 11.6 3 Este 11 Nordeste 0 -- -- 85
2019-10-15 19:00:00 12.8 5 Nordeste 13 Este 0 -- -- 77
2019-10-15 18:00:00 13.7 3 Nordeste 12 Nordeste 0 -- -- 72
2019-10-15 17:00:00 13.7 6 Nordeste 17 Este 0 -- -- 68
2019-10-15 16:00:00 14.7 2 Sudoeste 14 Oeste 0 -- -- 68
2019-10-15 15:00:00 14.7 2 Sudeste 15 Nordeste 0 -- -- 67
2019-10-15 14:00:00 16.2 4 Sur 12 Oeste 0 -- -- 60
2019-10-15 13:00:00 14.3 5 Sudoeste 14 Sudoeste 0 -- -- 76
2019-10-15 12:00:00 13.1 6 Sudoeste 24 Sudoeste 0 -- -- 80
2019-10-15 11:00:00 11.1 9 Sudoeste 18 Sudoeste 0 -- -- 84
2019-10-15 10:00:00 10.3 8 Sudoeste 16 Sudoeste 0 -- -- 89
2019-10-15 09:00:00 8.7 5 Sudoeste 23 Oeste 0.2 -- -- 99
2019-10-15 08:00:00 8.7 9 Sudoeste 22 Sudoeste 0 -- -- 100
2019-10-15 07:00:00 9.6 10 Sudoeste 22 Oeste 0 -- -- 100
2019-10-15 06:00:00 10.6 8 Sudoeste 13 Sudoeste 0 -- -- 100
2019-10-15 05:00:00 10.5 0 Calma 5 Sur 0 -- -- 100
2019-10-15 04:00:00 10 2 Sur 8 Sudoeste 0 -- -- 100
2019-10-15 03:00:00 10.8 2 Sudoeste 12 Oeste 0.4 -- -- 100
2019-10-15 02:00:00 10.6 5 Sudoeste 13 Oeste 0 -- -- 100
2019-10-15 01:00:00 11.8 5 Sudoeste 17 Sur 0.2 -- -- 100
2019-10-15 00:00:00 12.9 12 Sudoeste 28 Oeste 1 -- -- 100
2019-10-14 23:00:00 12.5 4 Sudoeste 11 Sudoeste 0 -- -- 100
2019-10-14 22:00:00 12.7 5 Sudoeste 14 Sudoeste 0 -- -- 100
2019-10-14 21:00:00 13.3 7 Sur 13 Sudoeste 0 -- -- 99
2019-10-14 20:00:00 13.5 4 Sudoeste 17 Oeste 0.4 -- -- 97
2019-10-14 19:00:00 13.9 7 Sudoeste 24 Sudoeste 0.2 -- -- 93
2019-10-14 18:00:00 16.6 10 Sur 29 Sudoeste 2.6 -- -- 83
2019-10-14 17:00:00 18.7 8 Sudeste 17 Sudeste 0 -- -- 79
2019-10-14 16:00:00 19.6 5 Sur 14 Sur 0 -- -- 75
2019-10-14 15:00:00 20.4 6 Sur 17 Este 0 -- -- 72
2019-10-14 14:00:00 20.3 6 Este 16 Este 0 -- -- 68
2019-10-14 13:00:00 20 5 Este 16 Nordeste 0 -- -- 69
2019-10-14 12:00:00 19 5 Este 11 Este 0 -- -- 72
2019-10-14 11:00:00 16.1 4 Este 9 Este 0 -- -- 80
2019-10-14 10:00:00 13.5 3 Norte 8 Este 0 -- -- 91
2019-10-14 09:00:00 13.1 3 Nordeste 9 Nordeste 0 -- -- 92
2019-10-14 08:00:00 12.7 3 Norte 9 Norte 0 -- -- 98
2019-10-14 07:00:00 13 3 Sudoeste 10 Sudoeste 0 -- -- 100
2019-10-14 06:00:00 13 6 Sudoeste 18 Sudoeste 0 -- -- 100
2019-10-14 05:00:00 13.2 3 Sur 9 Sudoeste 0 -- -- 99
2019-10-14 04:00:00 13.2 3 Sudoeste 8 Sudoeste 0 -- -- 100
2019-10-14 03:00:00 13.6 0 Calma 6 Oeste 0 -- -- 100
2019-10-14 02:00:00 13.8 0 Calma 5 Norte 0 -- -- 100
2019-10-14 01:00:00 13.7 0 Calma 2 Sudeste 0 -- -- 100
2019-10-14 00:00:00 13.1 0 Calma 3 Oeste 0 -- -- 99
2019-10-13 23:00:00 13.7 2 Sudeste 5 Sudoeste 0 -- -- 96
2019-10-13 22:00:00 16 2 Sur 5 Sudeste 0 -- -- 96
2019-10-13 21:00:00 16.8 2 Sur 11 Sudeste 0 -- -- 96
2019-10-13 20:00:00 17.4 4 Este 14 Este 0 -- -- 94
2019-10-13 19:00:00 18.3 7 Este 17 Sudeste 0 -- -- 89
2019-10-13 18:00:00 20.2 9 Sudeste 23 Sudeste 0 -- -- 77
2019-10-13 17:00:00 21.6 8 Sudeste 22 Este 0 -- -- 68
2019-10-13 16:00:00 22.9 7 Sudeste 18 Sur 0 -- -- 59
2019-10-13 15:00:00 23 5 Sur 19 Este 0 -- -- 60
2019-10-13 14:00:00 21.9 6 Sudeste 21 Sur 0 -- -- 66
2019-10-13 13:00:00 21.1 6 Sur 13 Sur 0 -- -- 67
2019-10-13 12:00:00 19.7 3 Sudeste 9 Oeste 0 -- -- 70
2019-10-13 11:00:00 17.4 3 Sudoeste 6 Oeste 0 -- -- 77
2019-10-13 10:00:00 13.2 2 Sudeste 4 Sudeste 0 -- -- 95
2019-10-13 09:00:00 10.5 0 Calma 5 Sudeste 0 -- -- 100
2019-10-13 08:00:00 10.8 3 Sudoeste 19 Oeste 0 -- -- 100
2019-10-13 07:00:00 11.5 7 Sudoeste 18 Sudoeste 0 -- -- 98
2019-10-13 06:00:00 12.3 5 Sur 12 Sudoeste 0 -- -- 98
2019-10-13 05:00:00 13.5 4 Sudoeste 11 Sudoeste 0 -- -- 97
2019-10-13 04:00:00 14 4 Sudoeste 13 Sudoeste 0 -- -- 98
2019-10-13 03:00:00 13.6 0 Calma 8 Oeste 0 -- -- 98
2019-10-13 02:00:00 13.6 4 Oeste 14 Sudoeste 0 -- -- 99
2019-10-13 01:00:00 14 3 Sur 8 Oeste 0 -- -- 99
2019-10-13 00:00:00 14.2 0 Calma 4 Sudoeste 0 -- -- 99
2019-10-12 23:00:00 14.2 0 Calma 5 Este 0 -- -- 96
2019-10-12 22:00:00 14.6 0 Calma 3 Noroeste 0 -- -- 97
2019-10-12 21:00:00 14.4 0 Calma 5 Sudoeste 0 -- -- 92
2019-10-12 20:00:00 16.6 3 Norte 12 Sudoeste 0 -- -- 83
2019-10-12 19:00:00 19.5 4 Sur 19 Oeste 0 -- -- 69
2019-10-12 18:00:00 21.5 8 Sudoeste 21 Oeste 0 -- -- 62
2019-10-12 17:00:00 23 9 Sudoeste 23 Sudoeste 0 -- -- 59
2019-10-12 16:00:00 23.3 9 Sudoeste 23 Sudoeste 0 -- -- 58
2019-10-12 15:00:00 22 8 Sudoeste 26 Sudoeste 0 -- -- 63
2019-10-12 14:00:00 20.7 10 Sudoeste 27 Oeste 0 -- -- 69
2019-10-12 13:00:00 18.9 11 Sudoeste 31 Sudoeste 0 -- -- 75
2019-10-12 12:00:00 18.2 14 Sudoeste 35 Sudoeste 0 -- -- 78
2019-10-12 11:00:00 17.7 11 Sudoeste 27 Oeste 0 -- -- 80
2019-10-12 10:00:00 16.2 12 Sudoeste 29 Oeste 0 -- -- 87
2019-10-12 09:00:00 15.4 10 Sudoeste 28 Sudoeste 0 -- -- 89
2019-10-12 08:00:00 15.2 9 Sudoeste 29 Oeste 0 -- -- 88
2019-10-12 07:00:00 15.2 10 Sudoeste 28 Oeste 0 -- -- 90
2019-10-12 06:00:00 15.3 14 Sudoeste 36 Oeste 0 -- -- 91
2019-10-12 05:00:00 15.7 15 Oeste 35 Sudoeste 0 -- -- 90
2019-10-12 04:00:00 15.8 12 Oeste 28 Oeste 0 -- -- 92
2019-10-12 03:00:00 15.7 11 Oeste 33 Oeste 0 -- -- 92
2019-10-12 02:00:00 15.8 13 Sudoeste 27 Sudoeste 0 -- -- 94
2019-10-12 01:00:00 15.9 9 Sudoeste 28 Noroeste 0 -- -- 95
2019-10-12 00:00:00 16.1 10 Sudoeste 24 Oeste 0 -- -- 94
2019-10-11 23:00:00 16.6 9 Sudoeste 28 Oeste 0 -- -- 94
2019-10-11 22:00:00 16 8 Sudoeste 20 Sudoeste 0 -- -- 99
2019-10-11 21:00:00 14.7 0 Calma 4 Nordeste 0 -- -- 93
2019-10-11 20:00:00 17 3 Nordeste 8 Nordeste 0 -- -- 89
2019-10-11 19:00:00 18.8 0 Calma 12 Sudeste 0 -- -- 79
2019-10-11 18:00:00 20.3 5 Sudeste 16 Oeste 0 -- -- 70
2019-10-11 17:00:00 22.9 5 Sudoeste 18 Oeste 0 -- -- 56
2019-10-11 16:00:00 22.9 6 Sudoeste 21 Oeste 0 -- -- 55
2019-10-11 15:00:00 22 9 Sudoeste 20 Sudoeste 0 -- -- 56
2019-10-11 14:00:00 20.7 11 Sudoeste 23 Oeste 0 -- -- 59
2019-10-11 13:00:00 19.2 11 Sudoeste 24 Oeste 0 -- -- 65
2019-10-11 12:00:00 17.3 13 Sudoeste 29 Sudoeste 0 -- -- 73
2019-10-11 11:00:00 14.7 10 Sudoeste 23 Oeste 0 -- -- 78
2019-10-11 10:00:00 10.3 9 Sudoeste 21 Sudoeste 0 -- -- 86
2019-10-11 09:00:00 6.7 9 Sudoeste 27 Oeste 0 -- -- 100
2019-10-11 08:00:00 6 9 Sudoeste 20 Oeste 0 -- -- 100
2019-10-11 07:00:00 6 5 Sudoeste 11 Sur 0 -- -- 100
2019-10-11 06:00:00 6.4 0 Calma 6 Sudoeste 0 -- -- 97
2019-10-11 05:00:00 7.8 2 Noroeste 12 Oeste 0 -- -- 97
2019-10-11 04:00:00 8.9 4 Oeste 25 Sudoeste 0 -- -- 96
2019-10-11 03:00:00 9.7 13 Sudoeste 24 Oeste 0 -- -- 95
2019-10-11 02:00:00 10.3 9 Oeste 18 Sudoeste 0 -- -- 94
2019-10-11 01:00:00 10.3 0 Calma 9 Norte 0 -- -- 94
2019-10-11 00:00:00 10.2 2 Norte 5 Norte 0 -- -- 98
2019-10-10 23:00:00 9.5 2 Norte 5 Norte 0 -- -- 99
2019-10-10 22:00:00 9.8 2 Sudeste 6 Nordeste 0 -- -- 94
2019-10-10 21:00:00 12 0 Calma 6 Nordeste 0 -- -- 86
2019-10-10 20:00:00 13.6 5 Nordeste 14 Nordeste 0 -- -- 81
2019-10-10 19:00:00 15.7 4 Este 15 Este 0 -- -- 72
2019-10-10 18:00:00 16.9 5 Este 12 Este 0 -- -- 69
2019-10-10 17:00:00 17.5 5 Sudeste 14 Este 0 -- -- 66
2019-10-10 16:00:00 17.9 8 Este 17 Este 0 -- -- 64
2019-10-10 15:00:00 18 6 Sudeste 17 Este 0 -- -- 64
2019-10-10 14:00:00 17.3 7 Nordeste 17 Nordeste 0 -- -- 69
2019-10-10 13:00:00 17.6 4 Sudoeste 13 Sudoeste 0 -- -- 65
2019-10-10 12:00:00 14.4 5 Sur 20 Sur 0 -- -- 75
2019-10-10 11:00:00 12.8 4 Sudoeste 10 Oeste 0 -- -- 91
2019-10-10 10:00:00 11.2 0 Calma 5 Sur 0 -- -- 100
2019-10-10 09:00:00 10 0 Calma 4 Sur 0 -- -- 100
2019-10-10 08:00:00 9.3 0 Calma 6 Sudoeste 0 -- -- 100
2019-10-10 07:00:00 9.8 4 Sudoeste 8 Sur 0 -- -- 100
2019-10-10 06:00:00 10.9 2 Sudoeste 6 Sudoeste 0 -- -- 99
2019-10-10 05:00:00 11.5 3 Sur 10 Sur 0 -- -- 96
2019-10-10 04:00:00 12.5 3 Sudoeste 21 Sudoeste 0 -- -- 98
2019-10-10 03:00:00 12.6 5 Sudoeste 15 Sudoeste 0.8 -- -- 100
2019-10-10 02:00:00 12.4 0 Calma 5 Nordeste 0.6 -- -- 100
2019-10-10 01:00:00 12.4 3 Nordeste 6 Nordeste 0.4 -- -- 100
2019-10-10 00:00:00 12.5 3 Nordeste 8 Este 0 -- -- 100
2019-10-09 23:00:00 12.5 3 Nordeste 7 Nordeste 0.2 -- -- 100
2019-10-09 22:00:00 12.6 2 Norte 8 Este 0 -- -- 100
2019-10-09 21:00:00 12.9 3 Este 9 Sudeste 0.2 -- -- 100
2019-10-09 20:00:00 13 3 Este 9 Este 0 -- -- 99
2019-10-09 19:00:00 13.4 3 Este 8 Este 0 -- -- 98
2019-10-09 18:00:00 13.6 3 Sudeste 12 Este 0 -- -- 97
2019-10-09 17:00:00 14.3 3 Nordeste 11 Nordeste 0 -- -- 96
2019-10-09 16:00:00 15.1 4 Nordeste 13 Sudeste 0 -- -- 92
2019-10-09 15:00:00 16.4 5 Este 14 Este 0 -- -- 82
2019-10-09 14:00:00 17.7 8 Este 19 Sudeste 0 -- -- 76
2019-10-09 13:00:00 18.8 11 Este 19 Este 0 -- -- 74
2019-10-09 12:00:00 18.2 4 Este 9 Sudoeste 0 -- -- 74
2019-10-09 11:00:00 16.9 6 Sudoeste 11 Oeste 0 -- -- 84
2019-10-09 10:00:00 12.6 2 Sudoeste 5 Sudoeste 0 -- -- 100
2019-10-09 09:00:00 9.4 0 Calma 3 Norte 0 -- -- 100
2019-10-09 08:00:00 8.9 0 Calma 5 Sudoeste 0 -- -- 100
2019-10-09 07:00:00 8.3 0 Calma 3 Sur 0 -- -- 100
2019-10-09 06:00:00 8.4 0 Calma 4 Sudeste 0 -- -- 100
2019-10-09 05:00:00 8.7 0 Calma 3 Sur 0 -- -- 100
2019-10-09 04:00:00 9.2 0 Calma 3 Sudeste 0 -- -- 99
2019-10-09 03:00:00 9.4 0 Calma 3 Sur 0 -- -- 98
2019-10-09 02:00:00 10.1 0 Calma 3 Sur 0 -- -- 96
2019-10-09 01:00:00 11 0 Calma 4 Oeste 0 -- -- 93
2019-10-09 00:00:00 12.8 3 Este 8 Nordeste 0 -- -- 87
2019-10-08 23:00:00 13.4 4 Nordeste 8 Sudeste 0 -- -- 86
2019-10-08 22:00:00 14.3 5 Este 9 Nordeste 0 -- -- 83
2019-10-08 21:00:00 14.6 3 Este 9 Nordeste 0 -- -- 82
2019-10-08 20:00:00 16.1 3 Este 6 Nordeste 0 -- -- 80
2019-10-08 19:00:00 19.3 0 Calma 9 Sudeste 0 -- -- 66
2019-10-08 18:00:00 22.3 5 Sur 17 Oeste 0 -- -- 51
2019-10-08 17:00:00 23.8 6 Sudoeste 22 Oeste 0 -- -- 47
2019-10-08 16:00:00 24.1 9 Sudoeste 19 Sudoeste 0 -- -- 45
2019-10-08 15:00:00 23.2 10 Sudoeste 23 Oeste 0 -- -- 47
2019-10-08 14:00:00 21.9 10 Sudoeste 23 Oeste 0 -- -- 55
2019-10-08 13:00:00 20.3 11 Sudoeste 27 Sudoeste 0 -- -- 60
2019-10-08 12:00:00 18.3 13 Sudoeste 27 Sudoeste 0 -- -- 65
2019-10-08 11:00:00 15.7 11 Sudoeste 26 Sudoeste 0 -- -- 74
2019-10-08 10:00:00 11.7 5 Sudoeste 18 Sudoeste 0 -- -- 82
2019-10-08 09:00:00 7.6 5 Sur 13 Sudoeste 0 -- -- 96
2019-10-08 08:00:00 6.1 3 Sur 7 Sudoeste 0 -- -- 98
2019-10-08 07:00:00 5.9 0 Calma 4 Sudoeste 0 -- -- 95
2019-10-08 06:00:00 6.6 0 Calma 6 Sur 0 -- -- 92
2019-10-08 05:00:00 7.3 4 Sudoeste 13 Sudoeste 0 -- -- 90
2019-10-08 04:00:00 7.5 7 Sudoeste 21 Sudoeste 0 -- -- 89
2019-10-08 03:00:00 6.7 3 Sur 6 Sur 0 -- -- 94
2019-10-08 02:00:00 6.9 2 Sudeste 5 Sur 0 -- -- 91
2019-10-08 01:00:00 7.8 3 Sudoeste 8 Norte 0 -- -- 84
2019-10-08 00:00:00 9.5 3 Este 12 Nordeste 0 -- -- 75
2019-10-07 23:00:00 10.2 6 Nordeste 12 Nordeste 0 -- -- 72
2019-10-07 22:00:00 10.9 4 Nordeste 10 Este 0 -- -- 76
2019-10-07 21:00:00 10.9 3 Nordeste 8 Norte 0 -- -- 80
2019-10-07 20:00:00 13.4 3 Norte 10 Nordeste 0 -- -- 75
2019-10-07 19:00:00 16.3 2 Este 8 Sur 0 -- -- 63
2019-10-07 18:00:00 19.3 3 Sudeste 8 Este 0 -- -- 51
2019-10-07 17:00:00 20 3 Sudeste 10 Este 0 -- -- 46
2019-10-07 16:00:00 19.4 4 Sudeste 15 Sudeste 0 -- -- 50
2019-10-07 15:00:00 19.6 6 Este 14 Sudeste 0 -- -- 50
2019-10-07 14:00:00 17.7 3 Sudeste 15 Sudeste 0 -- -- 53
2019-10-07 13:00:00 18.6 4 Este 10 Sudeste 0 -- -- 51
2019-10-07 12:00:00 17.2 4 Sur 11 Sudeste 0 -- -- 56
2019-10-07 11:00:00 14.5 4 Nordeste 9 Nordeste 0 -- -- 69
2019-10-07 10:00:00 10.3 3 Este 11 Sur 0 -- -- 85
2019-10-07 09:00:00 7 5 Sudoeste 15 Sudoeste 0 -- -- 96
2019-10-07 08:00:00 6.2 6 Sudoeste 13 Sudoeste 0 -- -- 97
2019-10-07 07:00:00 6.3 3 Sudoeste 11 Este 0 -- -- 93
2019-10-07 06:00:00 7.8 5 Este 10 Este 0 -- -- 90
2019-10-07 05:00:00 9.2 2 Sudeste 5 Norte 0 -- -- 98
2019-10-07 04:00:00 10.4 2 Norte 6 Norte 0 -- -- 97
2019-10-07 03:00:00 12.2 2 Oeste 7 Nordeste 0 -- -- 94
2019-10-07 02:00:00 13.3 4 Este 6 Este 0 -- -- 93
2019-10-07 01:00:00 13.4 3 Nordeste 6 Nordeste 0 -- -- 94
2019-10-07 00:00:00 13.6 0 Calma 8 Nordeste 0 -- -- 91
2019-10-06 23:00:00 13.5 0 Calma 5 Este 0 -- -- 92
2019-10-06 22:00:00 13.9 0 Calma 4 Nordeste 0 -- -- 90
2019-10-06 21:00:00 14.2 3 Nordeste 9 Nordeste 0 -- -- 86
2019-10-06 20:00:00 14.5 2 Sur 7 Sudeste 0 -- -- 85
2019-10-06 19:00:00 15 3 Este 14 Sur 0 -- -- 84
2019-10-06 18:00:00 16.3 4 Sudeste 15 Sur 0 -- -- 81
2019-10-06 17:00:00 16.9 5 Sudeste 13 Este 0 -- -- 80
2019-10-06 16:00:00 17.9 3 Sudoeste 13 Oeste 0 -- -- 72
2019-10-06 15:00:00 17.7 6 Sudoeste 21 Sudoeste 0 -- -- 71
2019-10-06 14:00:00 17 10 Sudoeste 27 Oeste 0 -- -- 75
2019-10-06 13:00:00 16.1 12 Sudoeste 26 Sudoeste 0 -- -- 79
2019-10-06 12:00:00 15.3 6 Sudoeste 17 Sudoeste 0 -- -- 80
2019-10-06 11:00:00 13.2 4 Sudoeste 9 Oeste 0 -- -- 88
2019-10-06 10:00:00 10.7 3 Norte 13 Norte 0 -- -- 82
2019-10-06 09:00:00 9.2 4 Nordeste 15 Norte 0 -- -- 84
2019-10-06 08:00:00 7.8 6 Nordeste 15 Nordeste 0 -- -- 89
2019-10-06 07:00:00 7.9 5 Este 12 Nordeste 0 -- -- 89
2019-10-06 06:00:00 8.2 6 Nordeste 14 Norte 0 -- -- 89
2019-10-06 05:00:00 8.8 4 Nordeste 14 Norte 0 -- -- 89
2019-10-06 04:00:00 9.2 5 Nordeste 12 Norte 0 -- -- 88
2019-10-06 03:00:00 9.5 4 Nordeste 15 Nordeste 0 -- -- 89
2019-10-06 02:00:00 10.5 5 Nordeste 13 Nordeste 0 -- -- 86
2019-10-06 01:00:00 11.6 4 Nordeste 13 Nordeste 0 -- -- 87
2019-10-06 00:00:00 12.3 4 Nordeste 11 Nordeste 0 -- -- 93
2019-10-05 23:00:00 11.5 0 Calma 5 Este 0 -- -- 97
2019-10-05 22:00:00 12.3 2 Este 6 Nordeste 0 -- -- 95
2019-10-05 21:00:00 12.8 0 Calma 4 Sudeste 0 -- -- 92
2019-10-05 20:00:00 15.2 3 Este 10 Este 0 -- -- 82
2019-10-05 19:00:00 16.5 7 Sudeste 15 Sudeste 0 -- -- 79
2019-10-05 18:00:00 18 5 Este 14 Este 0 -- -- 74
2019-10-05 17:00:00 18.5 4 Este 14 Este 0 -- -- 74
2019-10-05 16:00:00 18.9 5 Sudeste 18 Este 0 -- -- 70
2019-10-05 15:00:00 20 4 Sudoeste 15 Oeste 0 -- -- 62
2019-10-05 14:00:00 19.7 6 Oeste 18 Sudoeste 0 -- -- 65
2019-10-05 13:00:00 18.3 8 Sudoeste 21 Sudoeste 0 -- -- 69
2019-10-05 12:00:00 16.7 12 Sudoeste 22 Sudoeste 0 -- -- 74
2019-10-05 11:00:00 14.5 6 Sudoeste 12 Sudoeste 0 -- -- 88
2019-10-05 10:00:00 13.1 4 Oeste 8 Oeste 0 -- -- 92
2019-10-05 09:00:00 12.4 0 Calma 5 Sudoeste 0 -- -- 90
2019-10-05 08:00:00 12.2 0 Calma 6 Norte 0 -- -- 92
2019-10-05 07:00:00 12.1 2 Nordeste 9 Nordeste 0 -- -- 90
2019-10-05 06:00:00 12.2 5 Norte 13 Norte 0 -- -- 92
2019-10-05 05:00:00 12.7 3 Sur 21 Sudoeste 0 -- -- 98
2019-10-05 04:00:00 12.7 3 Noroeste 12 Oeste 0 -- -- 99
2019-10-05 03:00:00 12.8 2 Sur 18 Sudoeste 0 -- -- 99
2019-10-05 02:00:00 13.3 6 Sudoeste 15 Sudoeste 0 -- -- 99
2019-10-05 01:00:00 14.3 0 Calma 6 Este 0 -- -- 95
2019-10-05 00:00:00 14.7 3 Este 10 Este 0 -- -- 94
2019-10-04 23:00:00 15 4 Sudeste 9 Este 0 -- -- 95
2019-10-04 22:00:00 15.7 5 Este 12 Nordeste 0 -- -- 93
2019-10-04 21:00:00 16.2 4 Nordeste 14 Este 0 -- -- 88
2019-10-04 20:00:00 16.8 6 Este 16 Este 0 -- -- 86
2019-10-04 19:00:00 17.9 8 Este 19 Este 0 -- -- 80
2019-10-04 18:00:00 19.5 8 Este 16 Sudeste 0 -- -- 70
2019-10-04 17:00:00 20.8 7 Sudeste 17 Este 0 -- -- 55
2019-10-04 16:00:00 21.3 6 Este 17 Este 0 -- -- 54
2019-10-04 15:00:00 21.2 6 Este 16 Este 0 -- -- 56
2019-10-04 14:00:00 21 4 Sudoeste 12 Sudeste 0 -- -- 55
2019-10-04 13:00:00 19.9 5 Este 13 Sudeste 0 -- -- 52
2019-10-04 12:00:00 18.3 5 Sudoeste 12 Sudoeste 0 -- -- 57
2019-10-04 11:00:00 13.9 4 Sudoeste 9 Sudoeste 0 -- -- 78
2019-10-04 10:00:00 9.3 3 Sur 6 Sur 0 -- -- 95
2019-10-04 09:00:00 5.5 2 Sudoeste 5 Sudoeste 0 -- -- 100
2019-10-04 08:00:00 4.2 2 Sudoeste 5 Sudeste 0 -- -- 100
2019-10-04 07:00:00 4.4 0 Calma 4 Oeste 0 -- -- 100
2019-10-04 06:00:00 5 0 Calma 5 Sur 0 -- -- 100
2019-10-04 05:00:00 6 0 Calma 4 Sur 0 -- -- 99
2019-10-04 04:00:00 5.7 0 Calma 3 Sur 0 -- -- 99
2019-10-04 03:00:00 6.1 0 Calma 6 Este 0 -- -- 96
2019-10-04 02:00:00 7.1 0 Calma 9 Norte 0 -- -- 96
2019-10-04 01:00:00 8 2 Sudeste 8 Norte 0 -- -- 94
2019-10-04 00:00:00 9.1 3 Norte 9 Norte 0 -- -- 94
2019-10-03 23:00:00 10.1 5 Nordeste 9 Nordeste 0 -- -- 91
2019-10-03 22:00:00 10.6 4 Este 7 Este 0 -- -- 90
2019-10-03 21:00:00 11.7 5 Este 9 Este 0 -- -- 88
2019-10-03 20:00:00 13.6 0 Calma 4 Nordeste 0 -- -- 80
2019-10-03 19:00:00 17.5 3 Sudeste 11 Este 0 -- -- 70
2019-10-03 18:00:00 18.9 4 Este 10 Este 0 -- -- 59
2019-10-03 17:00:00 19.3 7 Este 14 Este 0 -- -- 61
2019-10-03 16:00:00 19.9 6 Nordeste 14 Este 0 -- -- 56
2019-10-03 15:00:00 19.2 7 Este 14 Este 0 -- -- 57
2019-10-03 14:00:00 19.5 4 Este 9 Sudeste 0 -- -- 51
2019-10-03 13:00:00 16.9 5 Sudoeste 12 Sudoeste 0 -- -- 53
2019-10-03 12:00:00 14.3 6 Sudoeste 13 Oeste 0 -- -- 65
2019-10-03 11:00:00 12.2 7 Sudoeste 18 Oeste 0 -- -- 74
2019-10-03 10:00:00 9.5 8 Oeste 18 Oeste 0 -- -- 86
2019-10-03 09:00:00 7.6 6 Oeste 18 Oeste 0 -- -- 99
2019-10-03 08:00:00 7.1 2 Norte 10 Norte 0 -- -- 94
2019-10-03 07:00:00 7.5 0 Calma 8 Noroeste 0 -- -- 100
2019-10-03 06:00:00 7.4 0 Calma 4 Sur 0 -- -- 100
2019-10-03 05:00:00 6.9 0 Calma 5 Nordeste 0 -- -- 95
2019-10-03 04:00:00 8 3 Nordeste 11 Norte 0 -- -- 90
2019-10-03 03:00:00 9.2 5 Nordeste 11 Norte 0 -- -- 84
2019-10-03 02:00:00 9.9 5 Nordeste 9 Nordeste 0 -- -- 79
2019-10-03 01:00:00 10.5 4 Nordeste 11 Norte 0 -- -- 81
2019-10-03 00:00:00 11.2 4 Nordeste 14 Norte 0 -- -- 85
2019-10-02 23:00:00 11.5 4 Este 12 Norte 0 -- -- 91
2019-10-02 22:00:00 12.1 2 Nordeste 7 Noroeste 0 -- -- 94
2019-10-02 21:00:00 13.4 2 Sudeste 6 Nordeste 0 -- -- 89
2019-10-02 20:00:00 15.1 2 Este 11 Este 0 -- -- 84
2019-10-02 19:00:00 17.3 8 Este 13 Este 0 -- -- 72
2019-10-02 18:00:00 18.7 8 Este 15 Este 0 -- -- 67
2019-10-02 17:00:00 19.1 4 Sudeste 14 Nordeste 0 -- -- 69
2019-10-02 16:00:00 19.3 7 Este 16 Sudeste 0 -- -- 65
2019-10-02 15:00:00 19.2 8 Sudeste 17 Nordeste 0 -- -- 68
2019-10-02 14:00:00 18.9 5 Este 18 Este 0 -- -- 65
2019-10-02 13:00:00 18.8 6 Sudeste 18 Este 0 -- -- 59
2019-10-02 12:00:00 18.4 5 Sudeste 13 Sudoeste 0 -- -- 64
2019-10-02 11:00:00 15.6 7 Sudoeste 18 Sudoeste 0 -- -- 76
2019-10-02 10:00:00 13 6 Sudoeste 13 Sudoeste 0 -- -- 93
2019-10-02 09:00:00 9.4 0 Calma 10 Norte 0 -- -- 96
2019-10-02 08:00:00 8.8 4 Norte 12 Nordeste 0 -- -- 96
2019-10-02 07:00:00 9.7 5 Norte 14 Norte 0 -- -- 96
2019-10-02 06:00:00 11 3 Sudoeste 12 Norte 0 -- -- 95
2019-10-02 05:00:00 12.2 4 Nordeste 13 Norte 0 -- -- 93
2019-10-02 04:00:00 13.6 0 Calma 9 Este 0 -- -- 99
2019-10-02 03:00:00 13.5 4 Este 16 Nordeste 0 -- -- 100
2019-10-02 02:00:00 13.5 7 Sudeste 20 Sur 10.8 -- -- 93
2019-10-02 01:00:00 14.6 3 Nordeste 10 Norte 0 -- -- 96
2019-10-02 00:00:00 14.7 5 Nordeste 9 Norte 0 -- -- 94
2019-10-01 23:00:00 14.7 5 Nordeste 12 Este 0 -- -- 95
2019-10-01 22:00:00 15.1 4 Norte 17 Nordeste 1 -- -- 91
2019-10-01 21:00:00 18.3 8 Nordeste 16 Nordeste 0 -- -- 76
2019-10-01 20:00:00 18.8 3 Este 9 Sudeste 0 -- -- 69
2019-10-01 19:00:00 20.6 4 Este 22 Nordeste 0 -- -- 60
2019-10-01 18:00:00 22.6 9 Este 21 Nordeste 0 -- -- 65
2019-10-01 17:00:00 24.5 8 Este 22 Este 0 -- -- 56
2019-10-01 16:00:00 25.1 8 Este 23 Este 0 -- -- 54
2019-10-01 15:00:00 25.3 7 Este 17 Este 0 -- -- 53
2019-10-01 14:00:00 25.3 8 Este 17 Este 0 -- -- 48
2019-10-01 13:00:00 24.9 5 Este 11 Sudeste 0 -- -- 48
2019-10-01 12:00:00 23.7 4 Sudeste 10 Este 0 -- -- 50
2019-10-01 11:00:00 20.2 0 Calma 7 Este 0 -- -- 67
2019-10-01 10:00:00 15.4 2 Sudeste 6 Sudeste 0 -- -- 85
2019-10-01 09:00:00 10.7 2 Sur 5 Sur 0 -- -- 100
2019-10-01 08:00:00 9.9 2 Sudoeste 4 Sudoeste 0 -- -- 100
2019-10-01 07:00:00 11.2 3 Sudoeste 4 Sur 0 -- -- 100
2019-10-01 06:00:00 12.2 0 Calma 4 Sudoeste 0 -- -- 100
2019-10-01 05:00:00 12.5 0 Calma 3 Norte 0 -- -- 100
2019-10-01 04:00:00 12 0 Calma 7 Norte 0 -- -- 100
2019-10-01 03:00:00 12 0 Calma 15 Oeste 0 -- -- 100
2019-10-01 02:00:00 13.4 5 Sudoeste 14 Sudoeste 0 -- -- 100
2019-10-01 01:00:00 12.4 2 Sur 6 Sur 0 -- -- 98
2019-10-01 00:00:00 14 0 Calma 11 Norte 0 -- -- 92
2019-09-30 23:00:00 15.2 3 Nordeste 9 Nordeste 0 -- -- 95
2019-09-30 22:00:00 14.2 0 Calma 7 Nordeste 0 -- -- 96
2019-09-30 21:00:00 15.3 0 Calma 4 Sudeste 0 -- -- 94
2019-09-30 20:00:00 17.4 0 Calma 8 Sudeste 0 -- -- 85
2019-09-30 19:00:00 20 6 Este 14 Este 0 -- -- 78
2019-09-30 18:00:00 21.5 5 Sudeste 19 Sudeste 0 -- -- 71
2019-09-30 17:00:00 23.8 4 Sur 12 Oeste 0 -- -- 60
2019-09-30 16:00:00 26 5 Oeste 16 Sudoeste 0 -- -- 53
2019-09-30 15:00:00 25 8 Oeste 21 Sudoeste 0 -- -- 52
2019-09-30 14:00:00 24 9 Sudoeste 19 Oeste 0 -- -- 54
2019-09-30 13:00:00 23.1 8 Sudoeste 22 Sudoeste 0 -- -- 56
2019-09-30 12:00:00 21.6 10 Sudoeste 22 Oeste 0 -- -- 59
2019-09-30 11:00:00 19.1 6 Sudoeste 14 Oeste 0 -- -- 69
2019-09-30 10:00:00 14.3 4 Sudoeste 7 Oeste 0 -- -- 91
2019-09-30 09:00:00 10.2 0 Calma 6 Sur 0 -- -- 100
2019-09-30 08:00:00 8.4 0 Calma 4 Sur 0 -- -- 100
2019-09-30 07:00:00 8.7 0 Calma 4 Sur 0 -- -- 100
2019-09-30 06:00:00 9.2 0 Calma 3 Sudoeste 0 -- -- 100
2019-09-30 05:00:00 9.7 0 Calma 4 Sur 0 -- -- 99
2019-09-30 04:00:00 10.5 0 Calma 4 Sur 0 -- -- 96
2019-09-30 03:00:00 11.7 0 Calma 7 Nordeste 0 -- -- 94
2019-09-30 02:00:00 12.9 3 Sudeste 8 Este 0 -- -- 91
2019-09-30 01:00:00 14 2 Norte 9 Este 0 -- -- 90
2019-09-30 00:00:00 15 4 Nordeste 10 Nordeste 0 -- -- 86
2019-09-29 23:00:00 15.5 4 Este 9 Este 0 -- -- 87
2019-09-29 22:00:00 16.1 4 Este 9 Este 0 -- -- 86
2019-09-29 21:00:00 16.8 5 Este 9 Nordeste 0 -- -- 87
2019-09-29 20:00:00 18.8 0 Calma 13 Este 0 -- -- 78
2019-09-29 19:00:00 22.5 4 Este 14 Este 0 -- -- 64
2019-09-29 18:00:00 24.7 5 Sudeste 16 Sudeste 0 -- -- 55
2019-09-29 17:00:00 26.5 7 Sudeste 18 Oeste 0 -- -- 46
2019-09-29 16:00:00 26.8 9 Sudoeste 22 Sudoeste 0 -- -- 45
2019-09-29 15:00:00 26.3 12 Sudoeste 21 Oeste 0 -- -- 44
2019-09-29 14:00:00 25.8 5 Sudeste 12 Sudoeste 0 -- -- 44
2019-09-29 13:00:00 24.9 7 Sudoeste 12 Sudoeste 0 -- -- 44
2019-09-29 12:00:00 21.5 6 Sudoeste 16 Sudoeste 0 -- -- 54
2019-09-29 11:00:00 17.3 6 Sudoeste 14 Sudoeste 0 -- -- 72
2019-09-29 10:00:00 13.3 3 Sudoeste 7 Sur 0 -- -- 89
2019-09-29 09:00:00 9.6 0 Calma 7 Sudoeste 0 -- -- 100
2019-09-29 08:00:00 8.7 4 Sudoeste 9 Sudoeste 0 -- -- 100
2019-09-29 07:00:00 9.2 2 Sur 6 Sudoeste 0 -- -- 100
2019-09-29 06:00:00 9.6 0 Calma 6 Nordeste 0 -- -- 96
2019-09-29 05:00:00 10.8 3 Sur 16 Oeste 0 -- -- 99
2019-09-29 04:00:00 11.9 10 Oeste 27 Oeste 0 -- -- 98
2019-09-29 03:00:00 12.6 13 Sudoeste 25 Sudoeste 0 -- -- 99
2019-09-29 02:00:00 13.2 10 Sudoeste 27 Sudoeste 0 -- -- 98
2019-09-29 01:00:00 13.4 8 Sudoeste 21 Oeste 0 -- -- 98
2019-09-29 00:00:00 13.2 8 Sudoeste 21 Oeste 0 -- -- 99
2019-09-28 23:00:00 11.9 0 Calma 4 Este 0 -- -- 97
2019-09-28 22:00:00 12.7 2 Este 6 Nordeste 0 -- -- 94
2019-09-28 21:00:00 13.5 3 Nordeste 6 Nordeste 0 -- -- 93
2019-09-28 20:00:00 14.6 0 Calma 6 Nordeste 0 -- -- 86
2019-09-28 19:00:00 17.1 3 Este 12 Sudeste 0 -- -- 76
2019-09-28 18:00:00 18.3 5 Este 18 Nordeste 0 -- -- 72
2019-09-28 17:00:00 19.7 6 Nordeste 18 Nordeste 0 -- -- 72
2019-09-28 16:00:00 21.3 9 Este 20 Este 0 -- -- 66
2019-09-28 15:00:00 21 6 Este 18 Este 0 -- -- 70
2019-09-28 14:00:00 21.2 5 Oeste 25 Sudoeste 0 -- -- 64
2019-09-28 13:00:00 20.1 7 Sudoeste 24 Oeste 0 -- -- 70
2019-09-28 12:00:00 20.1 10 Sudoeste 22 Oeste 0 -- -- 70
2019-09-28 11:00:00 17 3 Nordeste 6 Nordeste 0 -- -- 92
2019-09-28 10:00:00 14.3 2 Sur 5 Oeste 0 -- -- 100
2019-09-28 09:00:00 13.1 0 Calma 5 Nordeste 0 -- -- 100
2019-09-28 08:00:00 12.3 0 Calma 4 Este 0 -- -- 99
2019-09-28 07:00:00 12.7 2 Nordeste 5 Norte 0 -- -- 98
2019-09-28 06:00:00 13.9 0 Calma 5 Norte 0 -- -- 97
2019-09-28 05:00:00 14.9 0 Calma 4 Sudoeste 0 -- -- 98
2019-09-28 04:00:00 15.3 0 Calma 4 Norte 0 -- -- 97
2019-09-28 03:00:00 15.4 2 Norte 8 Nordeste 0 -- -- 96
2019-09-28 02:00:00 15.2 2 Este 5 Norte 0 -- -- 98
2019-09-28 01:00:00 15 2 Sudeste 5 Este 0 -- -- 97
2019-09-28 00:00:00 15.9 3 Este 6 Este 0 -- -- 95
2019-09-27 23:00:00 16.3 0 Calma 5 Sudeste 0 -- -- 95
2019-09-27 22:00:00 17.2 0 Calma 8 Nordeste 0 -- -- 91
2019-09-27 21:00:00 17.6 4 Nordeste 11 Sudeste 0 -- -- 89
2019-09-27 20:00:00 18.2 3 Norte 10 Este 0 -- -- 88
2019-09-27 19:00:00 18.8 5 Sudeste 13 Sudeste 0 -- -- 84
2019-09-27 18:00:00 19.7 6 Sudeste 15 Sudeste 0 -- -- 80
2019-09-27 17:00:00 20.6 8 Este 22 Sudeste 0 -- -- 74
2019-09-27 16:00:00 22.2 8 Este 17 Este 0 -- -- 68
2019-09-27 15:00:00 23.1 9 Este 22 Este 0 -- -- 65
2019-09-27 14:00:00 22.8 5 Sudeste 19 Este 0 -- -- 68
2019-09-27 13:00:00 22.2 6 Este 13 Este 0 -- -- 66
2019-09-27 12:00:00 21.6 0 Calma 2 Este 0 -- -- 68
2019-09-27 11:00:00 18.5 0 Calma 0 Calma 0 -- -- 74
2019-09-27 10:00:00 14 0 Calma 0 Calma 0 -- -- 100
2019-09-27 09:00:00 10.3 0 Calma 0 Calma 0 -- -- 100
2019-09-27 08:00:00 9.1 0 Calma 2 Sudoeste 0 -- -- 100
2019-09-27 07:00:00 9.4 0 Calma 0 Calma 0 -- -- 100
2019-09-27 06:00:00 9.9 0 Calma 0 Calma 0 -- -- 100
2019-09-27 05:00:00 10.4 0 Calma 0 Calma 0 -- -- 100
2019-09-27 04:00:00 10.6 0 Calma 3 Oeste 0 -- -- 99
2019-09-27 03:00:00 11.5 0 Calma 4 Este 0 -- -- 98
2019-09-27 02:00:00 12.3 0 Calma 4 Noroeste 0 -- -- 96
2019-09-27 01:00:00 13.3 2 Este 5 Nordeste 0 -- -- 96
2019-09-27 00:00:00 14.5 3 Este 9 Nordeste 0 -- -- 92
2019-09-26 23:00:00 15.6 3 Norte 8 Nordeste 0 -- -- 94
2019-09-26 22:00:00 16 3 Norte 6 Nordeste 0 -- -- 97
2019-09-26 21:00:00 16.2 0 Calma 5 Nordeste 0 -- -- 94
2019-09-26 20:00:00 18 3 Nordeste 9 Sudoeste 0 -- -- 88
2019-09-26 19:00:00 20.4 3 Este 15 Nordeste 0 -- -- 77
2019-09-26 18:00:00 21.9 6 Sudeste 17 Este 0 -- -- 67
2019-09-26 17:00:00 23.9 5 Sudoeste 16 Sudoeste 0 -- -- 52
2019-09-26 16:00:00 23.9 7 Sudoeste 15 Noroeste 0 -- -- 51
2019-09-26 15:00:00 22.1 5 Este 17 Nordeste 0 -- -- 58
2019-09-26 14:00:00 21 3 Nordeste 10 Sudoeste 0 -- -- 62
2019-09-26 13:00:00 20.5 5 Sudoeste 10 Sudoeste 0 -- -- 64
2019-09-26 12:00:00 19.8 3 Nordeste 8 Este 0 -- -- 66
2019-09-26 11:00:00 17.7 3 Sudoeste 12 Sudoeste 0 -- -- 75
2019-09-26 10:00:00 14.2 6 Sudoeste 12 Sudoeste 0 -- -- 88
2019-09-26 09:00:00 10.7 0 Calma 5 Este 0 -- -- 97
2019-09-26 08:00:00 9.9 3 Este 6 Nordeste 0 -- -- 94
2019-09-26 07:00:00 10.8 3 Nordeste 10 Nordeste 0 -- -- 92
2019-09-26 06:00:00 11.9 4 Norte 12 Norte 0 -- -- 91
2019-09-26 05:00:00 12.7 0 Calma 5 Norte 0 -- -- 93
2019-09-26 04:00:00 13 3 Norte 8 Norte 0 -- -- 94
2019-09-26 03:00:00 13.2 0 Calma 7 Nordeste 0 -- -- 94
2019-09-26 02:00:00 13.4 0 Calma 0 Calma 0 -- -- 93
2019-09-26 01:00:00 13.3 0 Calma 0 Calma 0 -- -- 95
2019-09-26 00:00:00 12.9 0 Calma 0 Calma 0 -- -- 97
2019-09-25 23:00:00 12.6 0 Calma 0 Calma 0 -- -- 97
2019-09-25 22:00:00 12.6 0 Calma 0 Calma 0 -- -- 95
2019-09-25 21:00:00 13.3 0 Calma 4 Nordeste 0 -- -- 91
2019-09-25 20:00:00 15.1 0 Calma 9 Nordeste 0 -- -- 84
2019-09-25 19:00:00 16.2 3 Nordeste 8 Nordeste 0 -- -- 81
2019-09-25 18:00:00 16.5 3 Nordeste 9 Este 0 -- -- 80
2019-09-25 17:00:00 16.8 3 Nordeste 10 Nordeste 0 -- -- 81
2019-09-25 16:00:00 16.3 4 Norte 12 Nordeste 0 -- -- 83
2019-09-25 15:00:00 16.4 4 Nordeste 13 Nordeste 0 -- -- 81
2019-09-25 14:00:00 17.4 4 Este 18 Oeste 0 -- -- 78
2019-09-25 13:00:00 17.5 7 Oeste 18 Oeste 0 -- -- 77
2019-09-25 12:00:00 15.2 6 Sudoeste 13 Oeste 0 -- -- 88
2019-09-25 11:00:00 13.5 0 Calma 4 Oeste 0 -- -- 95
2019-09-25 10:00:00 12.2 0 Calma 6 Sudoeste 0 -- -- 98
2019-09-25 09:00:00 11.5 4 Sudoeste 9 Sudoeste 0 -- -- 100
2019-09-25 08:00:00 10.2 0 Calma 6 Este 0 -- -- 97
2019-09-25 07:00:00 11.1 4 Este 8 Norte 0 -- -- 95
2019-09-25 06:00:00 11.4 3 Este 12 Nordeste 0 -- -- 94
2019-09-25 05:00:00 11.6 4 Nordeste 12 Norte 0 -- -- 94
2019-09-25 04:00:00 11.9 3 Este 8 Norte 0 -- -- 94
2019-09-25 03:00:00 12.3 3 Este 13 Norte 0 -- -- 93
2019-09-25 02:00:00 12.9 4 Este 8 Norte 0 -- -- 92
2019-09-25 01:00:00 12.9 4 Este 8 Sudeste 0 -- -- 94
2019-09-25 00:00:00 13.5 4 Este 9 Nordeste 0 -- -- 92
2019-09-24 23:00:00 14.1 4 Este 8 Este 0 -- -- 92
2019-09-24 22:00:00 14.9 4 Este 8 Nordeste 0 -- -- 87
2019-09-24 21:00:00 16.1 0 Calma 8 Norte 0 -- -- 81
2019-09-24 20:00:00 18.7 4 Nordeste 12 Nordeste 0 -- -- 72
2019-09-24 19:00:00 20.9 5 Nordeste 23 Este 0 -- -- 62
2019-09-24 18:00:00 22.6 10 Este 19 Este 0 -- -- 57
2019-09-24 17:00:00 24.2 8 Este 19 Sudeste 0 -- -- 49
2019-09-24 16:00:00 24.8 5 Este 16 Sudeste 0 -- -- 47
2019-09-24 15:00:00 25 6 Oeste 19 Oeste 0 -- -- 46
2019-09-24 14:00:00 23.4 10 Sudoeste 20 Oeste 0 -- -- 49
2019-09-24 13:00:00 22.3 10 Sudoeste 19 Oeste 0 -- -- 53
2019-09-24 12:00:00 21.1 5 Sudoeste 18 Sudoeste 0 -- -- 58
2019-09-24 11:00:00 18.7 8 Sudoeste 23 Sudoeste 0 -- -- 63
2019-09-24 10:00:00 15.2 11 Sudoeste 29 Sudoeste 0 -- -- 76
2019-09-24 09:00:00 11.1 12 Sudoeste 26 Sudoeste 0 -- -- 99
2019-09-24 08:00:00 9 10 Sudoeste 24 Oeste 0 -- -- 100
2019-09-24 07:00:00 9.2 10 Sudoeste 23 Oeste 0 -- -- 100
2019-09-24 06:00:00 8.9 3 Sudeste 10 Oeste 0 -- -- 100
2019-09-24 05:00:00 9.3 3 Sudoeste 7 Sudoeste 0 -- -- 100
2019-09-24 04:00:00 9.5 0 Calma 5 Sudoeste 0 -- -- 100
2019-09-24 03:00:00 9.7 0 Calma 5 Oeste 0 -- -- 100
2019-09-24 02:00:00 10.2 0 Calma 4 Sudoeste 0 -- -- 100
2019-09-24 01:00:00 10.5 3 Sudoeste 5 Sudoeste 0 -- -- 99
2019-09-24 00:00:00 11 2 Sur 6 Sur 0 -- -- 96
2019-09-23 23:00:00 12.3 3 Este 6 Este 0 -- -- 93
2019-09-23 22:00:00 12.9 4 Este 6 Sudeste 0 -- -- 93
2019-09-23 21:00:00 14 3 Nordeste 8 Norte 0 -- -- 90
2019-09-23 20:00:00 15.3 0 Calma 5 Este 0 -- -- 85
2019-09-23 19:00:00 17.8 3 Sudeste 7 Este 0 -- -- 72
2019-09-23 18:00:00 18.6 3 Nordeste 12 Nordeste 0 -- -- 62
2019-09-23 17:00:00 18.9 8 Nordeste 17 Este 0 -- -- 59
2019-09-23 16:00:00 21.2 4 Este 15 Oeste 0 -- -- 53
2019-09-23 15:00:00 19.3 3 Sudeste 15 Oeste 0 -- -- 55
2019-09-23 14:00:00 19.7 8 Oeste 18 Oeste 0 -- -- 56
2019-09-23 13:00:00 18.9 6 Oeste 17 Oeste 0 -- -- 61
2019-09-23 12:00:00 17.3 6 Sudoeste 14 Oeste 0 -- -- 68
2019-09-23 11:00:00 16.2 9 Sudoeste 16 Oeste 0 -- -- 74
2019-09-23 10:00:00 14.5 8 Sudoeste 16 Sudoeste 0 -- -- 86
2019-09-23 09:00:00 12.7 0 Calma 8 Oeste 0 -- -- 100
2019-09-23 08:00:00 12.3 3 Sur 9 Sudoeste 0 -- -- 100
2019-09-23 07:00:00 13.5 3 Sudoeste 9 Sur 0 -- -- 100
2019-09-23 06:00:00 13.8 0 Calma 5 Norte 0 -- -- 99
2019-09-23 05:00:00 14.3 0 Calma 8 Nordeste 0 -- -- 100
2019-09-23 04:00:00 14.6 2 Nordeste 6 Este 0 -- -- 100
2019-09-23 03:00:00 14.8 0 Calma 4 Nordeste 0 -- -- 100
2019-09-23 02:00:00 14.7 0 Calma 5 Nordeste 0 -- -- 99
2019-09-23 01:00:00 15.2 4 Norte 10 Norte 0 -- -- 99
2019-09-23 00:00:00 15.4 0 Calma 8 Nordeste 0 -- -- 99
2019-09-22 23:00:00 15.6 2 Este 9 Nordeste 0.2 -- -- 98
2019-09-22 22:00:00 16 3 Noroeste 9 Sudeste 0.6 -- -- 96
2019-09-22 21:00:00 16.8 6 Este 14 Sudeste 0 -- -- 90
2019-09-22 20:00:00 18 5 Sudeste 25 Sudeste 0 -- -- 88
2019-09-22 19:00:00 20.8 2 Sudoeste 13 Sudoeste 0 -- -- 78
2019-09-22 18:00:00 21.9 5 Sudeste 20 Oeste 0 -- -- 72
2019-09-22 17:00:00 23.3 7 Sur 24 Sudoeste 0 -- -- 60
2019-09-22 16:00:00 23 8 Sur 23 Oeste 0 -- -- 61
2019-09-22 15:00:00 23.8 11 Sudoeste 25 Sudoeste 0 -- -- 62
2019-09-22 14:00:00 22.7 9 Sudoeste 26 Sudoeste 0 -- -- 70
2019-09-22 13:00:00 21.2 10 Sudoeste 26 Oeste 0 -- -- 72
2019-09-22 12:00:00 19.5 9 Sudoeste 20 Sudoeste 0 -- -- 81
2019-09-22 11:00:00 18 7 Sudoeste 18 Sudoeste 0 -- -- 86
2019-09-22 10:00:00 15 9 Sudoeste 22 Oeste 0 -- -- 100
2019-09-22 09:00:00 12.8 9 Sudoeste 18 Oeste 0 -- -- 100
2019-09-22 08:00:00 12.2 8 Sudoeste 15 Sudoeste 0 -- -- 100
2019-09-22 07:00:00 12.6 6 Sudoeste 12 Sudoeste 0 -- -- 100
2019-09-22 06:00:00 12.8 3 Sudoeste 6 Sur 0 -- -- 100
2019-09-22 05:00:00 13.1 3 Sur 8 Sur 0 -- -- 100
2019-09-22 04:00:00 13.3 0 Calma 5 Sudoeste 0 -- -- 100
2019-09-22 03:00:00 13.3 3 Sudoeste 11 Sudoeste 0 -- -- 100
2019-09-22 02:00:00 13.3 4 Sudoeste 13 Sudoeste 0 -- -- 100
2019-09-22 01:00:00 13.9 9 Sudoeste 22 Sudoeste 0 -- -- 100
2019-09-22 00:00:00 14 5 Sudoeste 14 Oeste 0 -- -- 100